createdAt,value
2023-05-02T00:01:53.959Z,12.90
2023-05-02T00:04:41.270Z,12.90
2023-05-02T00:07:28.256Z,12.80
2023-05-02T00:10:14.864Z,12.80
2023-05-02T00:13:01.641Z,12.80
2023-05-02T00:15:48.099Z,12.80
2023-05-02T00:18:36.078Z,12.80
2023-05-02T00:21:22.509Z,12.80
2023-05-02T00:24:08.998Z,12.70
2023-05-02T00:26:56.046Z,12.70
2023-05-02T00:29:42.523Z,12.70
2023-05-02T00:32:29.202Z,12.70
2023-05-02T00:35:17.235Z,12.70
2023-05-02T00:38:03.836Z,12.70
2023-05-02T00:40:52.230Z,12.70
2023-05-02T00:43:41.031Z,12.80
2023-05-02T00:46:28.006Z,12.80
2023-05-02T00:49:14.789Z,12.80
2023-05-02T00:52:03.122Z,12.90
2023-05-02T00:54:49.822Z,12.90
2023-05-02T00:57:36.657Z,13.00
2023-05-02T01:00:28.467Z,13.00
2023-05-02T01:03:22.913Z,13.20
2023-05-02T01:06:21.097Z,13.10
2023-05-02T01:09:26.038Z,13.10
2023-05-02T01:12:25.555Z,13.10
2023-05-02T01:15:22.104Z,13.10
2023-05-02T01:18:11.971Z,13.10
2023-05-02T01:21:01.317Z,13.10
2023-05-02T01:23:57.760Z,13.00
2023-05-02T01:26:52.444Z,12.90
2023-05-02T01:29:43.070Z,12.90
2023-05-02T01:32:33.377Z,12.90
2023-05-02T01:35:22.167Z,12.90
2023-05-02T01:38:08.989Z,12.90
2023-05-02T01:40:58.208Z,12.90
2023-05-02T01:43:46.893Z,12.90
2023-05-02T01:46:38.206Z,12.90
2023-05-02T01:49:26.828Z,12.90
2023-05-02T01:52:14.969Z,13.00
2023-05-02T01:55:03.741Z,13.10
2023-05-02T01:57:53.562Z,13.10
2023-05-02T02:00:41.774Z,13.10
2023-05-02T02:03:32.112Z,13.10
2023-05-02T02:06:20.023Z,13.00
2023-05-02T02:09:06.651Z,13.10
2023-05-02T02:12:02.975Z,13.10
2023-05-02T02:14:54.018Z,13.10
2023-05-02T02:17:44.170Z,13.10
2023-05-02T02:20:33.156Z,13.10
2023-05-02T02:23:21.893Z,13.10
2023-05-02T02:26:10.067Z,13.10
2023-05-02T02:28:57.525Z,13.10
2023-05-02T02:31:43.852Z,13.20
2023-05-02T02:34:30.458Z,13.20
2023-05-02T02:37:21.239Z,13.10
2023-05-02T02:40:22.942Z,13.00
2023-05-02T02:43:20.933Z,13.10
2023-05-02T02:46:17.176Z,13.10
2023-05-02T02:49:18.125Z,13.10
2023-05-02T02:52:11.716Z,13.10
2023-05-02T02:55:02.084Z,13.10
2023-05-02T02:57:56.727Z,13.10
2023-05-02T03:00:43.583Z,13.10
2023-05-02T03:03:32.388Z,13.10
2023-05-02T03:06:20.041Z,13.10
2023-05-02T03:09:06.518Z,13.00
2023-05-02T03:11:54.193Z,13.00
2023-05-02T03:14:42.089Z,13.00
2023-05-02T03:17:29.006Z,13.00
2023-05-02T03:20:17.303Z,13.10
2023-05-02T03:23:03.682Z,13.00
2023-05-02T03:25:50.230Z,13.00
2023-05-02T03:28:37.952Z,13.10
2023-05-02T03:31:26.417Z,13.00
2023-05-02T03:34:13.618Z,13.00
2023-05-02T03:37:00.146Z,13.00
2023-05-02T03:39:46.534Z,13.00
2023-05-02T03:42:33.624Z,13.00
2023-05-02T03:45:21.763Z,12.90
2023-05-02T03:48:08.213Z,12.90
2023-05-02T03:50:55.192Z,12.90
2023-05-02T03:53:41.579Z,12.90
2023-05-02T03:56:27.826Z,12.90
2023-05-02T03:59:14.455Z,12.90
2023-05-02T04:02:02.557Z,12.80
2023-05-02T04:04:50.027Z,12.80
2023-05-02T04:07:36.400Z,12.70
2023-05-02T04:10:22.940Z,12.80
2023-05-02T04:13:09.273Z,12.80
2023-05-02T04:15:55.809Z,12.70
2023-05-02T04:18:43.686Z,12.80
2023-05-02T04:21:30.305Z,12.80
2023-05-02T04:24:16.516Z,12.80
2023-05-02T04:27:03.017Z,12.80
2023-05-02T04:29:49.902Z,12.80
2023-05-02T04:32:36.474Z,12.90
2023-05-02T04:35:24.416Z,12.90
2023-05-02T04:38:10.960Z,13.00
2023-05-02T04:40:57.293Z,13.00
2023-05-02T04:43:43.738Z,13.10
2023-05-02T04:46:30.195Z,13.20
2023-05-02T04:49:16.555Z,13.10
2023-05-02T04:52:04.224Z,13.20
2023-05-02T04:54:50.707Z,13.10
2023-05-02T04:57:37.077Z,13.10
2023-05-02T05:00:23.924Z,13.10
2023-05-02T05:03:10.626Z,13.00
2023-05-02T05:05:57.542Z,13.00
2023-05-02T05:08:45.604Z,13.00
2023-05-02T05:11:32.365Z,13.00
2023-05-02T05:14:19.026Z,13.00
2023-05-02T05:17:05.509Z,13.00
2023-05-02T05:19:51.837Z,13.10
2023-05-02T05:22:41.371Z,13.10
2023-05-02T05:25:29.369Z,13.20
2023-05-02T05:28:15.956Z,13.30
2023-05-02T05:31:06.952Z,13.40
2023-05-02T05:33:53.553Z,13.40
2023-05-02T05:36:41.340Z,13.60
2023-05-02T05:39:27.886Z,13.60
2023-05-02T05:42:15.758Z,13.70
2023-05-02T05:45:02.890Z,13.60
2023-05-02T05:47:49.961Z,13.60
2023-05-02T05:50:36.370Z,13.60
2023-05-02T05:53:22.800Z,13.60
2023-05-02T05:56:12.717Z,13.60
2023-05-02T05:59:00.566Z,13.70
2023-05-02T06:01:47.455Z,13.70
2023-05-02T06:04:35.298Z,13.70
2023-05-02T06:07:21.940Z,13.80
2023-05-02T06:10:09.497Z,13.80
2023-05-02T06:12:55.872Z,13.80
2023-05-02T06:15:43.651Z,13.80
2023-05-02T06:18:30.148Z,13.80
2023-05-02T06:21:17.250Z,13.90
2023-05-02T06:24:03.899Z,13.90
2023-05-02T06:29:38.197Z,14.00
2023-05-02T06:32:26.307Z,14.00
2023-05-02T06:35:12.798Z,14.00
2023-05-02T06:37:59.791Z,14.10
2023-05-02T06:40:46.307Z,14.10
2023-05-02T06:43:32.831Z,14.10
2023-05-02T06:46:20.774Z,14.20
2023-05-02T06:49:08.738Z,14.20
2023-05-02T06:51:55.335Z,14.10
2023-05-02T06:54:42.383Z,14.10
2023-05-02T06:57:29.070Z,13.90
2023-05-02T07:00:17.749Z,13.90
2023-05-02T07:03:04.341Z,13.90
2023-05-02T07:05:52.371Z,13.80
2023-05-02T07:08:41.355Z,13.80
2023-05-02T07:11:28.100Z,13.70
2023-05-02T07:14:14.850Z,13.60
2023-05-02T07:17:01.317Z,13.50
2023-05-02T07:19:47.828Z,13.30
2023-05-02T07:22:35.550Z,13.20
2023-05-02T07:25:22.396Z,13.10
2023-05-02T07:28:09.569Z,13.10
2023-05-02T07:30:56.429Z,13.20
2023-05-02T07:33:42.919Z,13.20
2023-05-02T07:36:29.164Z,13.30
2023-05-02T07:39:16.993Z,13.30
2023-05-02T07:42:03.938Z,13.40
2023-05-02T07:44:50.305Z,13.50
2023-05-02T07:47:36.945Z,13.60
2023-05-02T07:50:24.619Z,13.70
2023-05-02T07:53:11.900Z,13.80
2023-05-02T07:55:59.579Z,14.00
2023-05-02T07:58:46.312Z,14.20
2023-05-02T08:01:32.897Z,14.30
2023-05-02T08:07:06.362Z,14.80
2023-05-02T08:09:52.971Z,15.00
2023-05-02T08:12:41.448Z,15.30
2023-05-02T08:15:27.946Z,15.60
2023-05-02T08:18:14.422Z,15.80
2023-05-02T08:21:00.845Z,16.00
2023-05-02T08:23:47.259Z,16.00
2023-05-02T08:26:34.023Z,15.90
2023-05-02T08:29:21.714Z,15.90
2023-05-02T08:32:08.486Z,15.90
2023-05-02T08:34:56.841Z,16.00
2023-05-02T08:37:43.410Z,16.10
2023-05-02T08:43:24.563Z,15.90
2023-05-02T08:46:13.975Z,15.80
2023-05-02T08:49:02.279Z,16.00
2023-05-02T08:51:51.619Z,16.50
2023-05-02T08:54:39.538Z,16.80
2023-05-02T08:57:26.784Z,17.30
2023-05-02T09:00:14.777Z,17.70
2023-05-02T09:03:11.945Z,17.80
2023-05-02T09:06:08.243Z,17.60
2023-05-02T09:08:54.672Z,17.30
2023-05-02T09:11:41.363Z,17.00
2023-05-02T09:14:28.511Z,16.80
2023-05-02T09:17:15.097Z,16.70
2023-05-02T09:20:03.415Z,16.70
2023-05-02T09:22:51.365Z,17.30
2023-05-02T09:25:38.641Z,17.90
2023-05-02T09:28:39.922Z,18.20
2023-05-02T09:31:49.521Z,18.00
2023-05-02T09:34:37.517Z,17.70
2023-05-02T09:37:37.621Z,17.70
2023-05-02T09:40:24.506Z,17.70
2023-05-02T09:43:17.084Z,17.90
2023-05-02T09:46:05.238Z,18.00
2023-05-02T09:48:56.821Z,18.20
2023-05-02T09:51:44.098Z,18.20
2023-05-02T09:54:38.405Z,18.10
2023-05-02T09:57:41.394Z,17.90
2023-05-02T10:00:45.489Z,17.80
2023-05-02T10:03:32.453Z,17.60
2023-05-02T10:06:22.063Z,17.50
2023-05-02T10:09:10.746Z,17.60
2023-05-02T10:11:58.439Z,17.90
2023-05-02T10:14:50.680Z,18.00
2023-05-02T10:17:42.999Z,18.10
2023-05-02T10:20:35.898Z,18.30
2023-05-02T10:23:26.366Z,18.20
2023-05-02T10:26:16.178Z,18.10
2023-05-02T10:29:04.327Z,17.80
2023-05-02T10:31:51.618Z,17.40
2023-05-02T10:34:40.054Z,17.00
2023-05-02T10:37:27.608Z,16.60
2023-05-02T10:40:14.773Z,16.10
2023-05-02T10:43:01.707Z,15.50
2023-05-02T10:45:49.626Z,15.30
2023-05-02T10:48:36.876Z,15.00
2023-05-02T10:51:29.597Z,15.00
2023-05-02T10:54:23.468Z,15.00
2023-05-02T10:57:11.094Z,15.00
2023-05-02T11:00:24.252Z,14.60
2023-05-02T11:03:12.225Z,14.10
2023-05-02T11:06:07.211Z,13.80
2023-05-02T11:08:54.285Z,13.60
2023-05-02T11:11:42.783Z,13.40
2023-05-02T11:14:52.297Z,13.50
2023-05-02T11:17:59.966Z,13.60
2023-05-02T11:20:48.230Z,13.80
2023-05-02T11:23:36.929Z,14.20
2023-05-02T11:26:23.710Z,14.30
2023-05-02T11:29:10.431Z,14.40
2023-05-02T11:31:56.991Z,14.90
2023-05-02T11:34:45.458Z,15.40
2023-05-02T11:37:34.233Z,15.60
2023-05-02T11:40:21.695Z,15.80
2023-05-02T11:43:16.859Z,16.00
2023-05-02T11:46:04.978Z,16.20
2023-05-02T11:48:51.413Z,16.30
2023-05-02T11:51:37.924Z,16.60
2023-05-02T11:54:26.456Z,16.70
2023-05-02T11:57:13.371Z,16.70
2023-05-02T12:00:00.130Z,16.70
2023-05-02T12:02:47.808Z,16.90
2023-05-02T12:05:34.621Z,17.00
2023-05-02T12:08:24.116Z,17.10
2023-05-02T12:11:15.296Z,17.00
2023-05-02T12:14:01.871Z,17.00
2023-05-02T12:16:48.738Z,16.70
2023-05-02T12:19:37.122Z,16.50
2023-05-02T12:22:26.226Z,16.50
2023-05-02T12:25:12.713Z,16.30
2023-05-02T12:28:04.213Z,16.30
2023-05-02T12:30:51.862Z,16.10
2023-05-02T12:33:43.883Z,16.00
2023-05-02T12:36:30.453Z,15.80
2023-05-02T12:39:16.863Z,15.70
2023-05-02T12:42:10.932Z,15.80
2023-05-02T12:44:58.932Z,15.60
2023-05-02T12:47:48.654Z,15.50
2023-05-02T12:50:39.100Z,15.50
2023-05-02T12:53:42.434Z,15.30
2023-05-02T12:56:32.404Z,15.40
2023-05-02T12:59:29.975Z,15.60
2023-05-02T13:02:17.866Z,15.80
2023-05-02T13:05:14.482Z,16.00
2023-05-02T13:08:01.114Z,16.30
2023-05-02T13:10:48.167Z,16.30
2023-05-02T13:13:35.535Z,16.10
2023-05-02T13:16:21.973Z,16.20
2023-05-02T13:19:10.112Z,16.20
2023-05-02T13:21:56.563Z,16.20
2023-05-02T13:24:44.378Z,16.10
2023-05-02T13:27:33.997Z,15.90
2023-05-02T13:30:20.684Z,16.00
2023-05-02T13:33:07.459Z,16.00
2023-05-02T13:35:55.131Z,16.10
2023-05-02T13:38:41.540Z,16.00
2023-05-02T13:41:27.965Z,16.10
2023-05-02T13:44:15.548Z,16.10
2023-05-02T13:47:02.092Z,16.00
2023-05-02T13:49:48.512Z,15.80
2023-05-02T13:52:36.369Z,15.80
2023-05-02T13:55:23.032Z,15.70
2023-05-02T13:58:09.624Z,15.60
2023-05-02T14:00:56.960Z,15.60
2023-05-02T14:03:43.654Z,15.70
2023-05-02T14:06:33.347Z,15.90
2023-05-02T14:09:21.496Z,15.70
2023-05-02T14:12:08.254Z,15.70
2023-05-02T14:14:54.924Z,15.70
2023-05-02T14:17:41.414Z,15.70
2023-05-02T14:20:27.837Z,15.80
2023-05-02T14:23:14.079Z,16.00
2023-05-02T14:26:02.469Z,15.80
2023-05-02T14:28:49.189Z,15.60
2023-05-02T14:31:35.609Z,15.70
2023-05-02T14:34:22.295Z,15.70
2023-05-02T14:37:10.024Z,15.70
2023-05-02T14:39:58.946Z,15.80
2023-05-02T14:42:47.030Z,15.90
2023-05-02T14:45:33.774Z,15.90
2023-05-02T14:48:20.305Z,16.00
2023-05-02T14:51:07.281Z,16.00
2023-05-02T14:53:55.437Z,15.90
2023-05-02T14:56:42.369Z,15.70
2023-05-02T15:02:17.906Z,15.30
2023-05-02T15:05:05.560Z,15.20
2023-05-02T15:07:54.734Z,15.20
2023-05-02T15:10:41.321Z,15.10
2023-05-02T15:13:27.621Z,14.90
2023-05-02T15:16:15.550Z,14.80
2023-05-02T15:19:02.166Z,14.80
2023-05-02T15:21:49.762Z,14.70
2023-05-02T15:24:36.485Z,14.60
2023-05-02T15:27:23.028Z,14.60
2023-05-02T15:30:10.282Z,14.50
2023-05-02T15:32:58.274Z,14.50
2023-05-02T15:35:55.004Z,14.40
2023-05-02T15:38:42.818Z,14.40
2023-05-02T15:41:29.380Z,14.30
2023-05-02T15:44:15.862Z,14.20
2023-05-02T15:47:02.175Z,14.10
2023-05-02T15:49:53.608Z,14.00
2023-05-02T15:52:40.308Z,14.10
2023-05-02T15:55:26.809Z,14.00
2023-05-02T15:58:13.305Z,14.00
2023-05-02T16:01:00.088Z,14.00
2023-05-02T16:03:47.013Z,14.00
2023-05-02T16:06:36.248Z,14.00
2023-05-02T16:09:22.771Z,14.00
2023-05-02T16:12:09.416Z,14.00
2023-05-02T16:14:55.745Z,14.10
2023-05-02T16:17:42.950Z,13.80
2023-05-02T16:20:29.663Z,13.90
2023-05-02T16:23:17.831Z,14.00
2023-05-02T16:26:04.600Z,14.00
2023-05-02T16:28:51.156Z,14.00
2023-05-02T16:31:37.515Z,14.00
2023-05-02T16:34:23.740Z,14.00
2023-05-02T16:37:11.466Z,13.90
2023-05-02T16:40:00.859Z,13.90
2023-05-02T16:42:47.782Z,13.80
2023-05-02T16:45:34.358Z,13.90
2023-05-02T16:48:22.930Z,13.90
2023-05-02T16:51:09.448Z,13.80
2023-05-02T16:53:56.156Z,13.90
2023-05-02T16:56:44.159Z,13.80
2023-05-02T16:59:31.043Z,13.90
2023-05-02T17:02:20.803Z,13.90
2023-05-02T17:05:08.151Z,13.90
2023-05-02T17:07:54.706Z,13.80
2023-05-02T17:10:41.076Z,13.80
2023-05-02T17:13:36.705Z,13.70
2023-05-02T17:16:23.333Z,13.70
2023-05-02T17:19:09.617Z,13.70
2023-05-02T17:21:57.839Z,13.60
2023-05-02T17:24:48.194Z,13.60
2023-05-02T17:27:34.776Z,13.70
2023-05-02T17:30:23.840Z,13.60
2023-05-02T17:33:10.699Z,13.70
2023-05-02T17:35:57.174Z,13.60
2023-05-02T17:38:43.841Z,13.50
2023-05-02T17:44:17.513Z,13.30
2023-05-02T17:47:06.172Z,13.10
2023-05-02T17:49:53.738Z,13.00
2023-05-02T17:52:40.632Z,12.90
2023-05-02T17:55:26.922Z,12.70
2023-05-02T17:58:13.563Z,12.70
2023-05-02T18:01:08.399Z,12.60
2023-05-02T18:03:56.534Z,12.50
2023-05-02T18:06:43.339Z,12.30
2023-05-02T18:09:29.757Z,12.20
2023-05-02T18:12:16.524Z,12.20
2023-05-02T18:15:05.735Z,12.10
2023-05-02T18:17:53.289Z,12.00
2023-05-02T18:20:42.266Z,11.80
2023-05-02T18:23:28.841Z,11.90
2023-05-02T18:26:15.659Z,11.80
2023-05-02T18:29:02.286Z,11.70
2023-05-02T18:31:52.413Z,11.70
2023-05-02T18:34:39.429Z,11.60
2023-05-02T18:37:31.309Z,11.60
2023-05-02T18:40:17.985Z,11.60
2023-05-02T18:43:04.265Z,11.50
2023-05-02T18:45:50.891Z,11.50
2023-05-02T18:48:37.504Z,11.40
2023-05-02T18:51:24.365Z,11.30
2023-05-02T18:54:12.094Z,11.30
2023-05-02T18:56:58.569Z,11.20
2023-05-02T18:59:45.178Z,11.20
2023-05-02T19:02:31.708Z,11.10
2023-05-02T19:05:18.668Z,11.10
2023-05-02T19:08:05.451Z,11.00
2023-05-02T19:10:53.662Z,11.00
2023-05-02T19:13:40.151Z,11.00
2023-05-02T19:16:27.507Z,11.00
2023-05-02T19:19:14.019Z,11.00
2023-05-02T19:22:01.038Z,10.90
2023-05-02T19:24:47.586Z,10.70
2023-05-02T19:27:35.394Z,10.70
2023-05-02T19:30:22.536Z,10.60
2023-05-02T19:33:09.227Z,10.70
2023-05-02T19:35:56.340Z,10.70
2023-05-02T19:38:43.696Z,10.60
2023-05-02T19:41:33.291Z,10.70
2023-05-02T19:44:21.539Z,10.60
2023-05-02T19:47:08.387Z,10.40
2023-05-02T19:49:54.833Z,10.40
2023-05-02T19:52:43.021Z,10.30
2023-05-02T19:55:29.498Z,10.30
2023-05-02T19:58:16.133Z,10.20
2023-05-02T20:01:04.361Z,10.10
2023-05-02T20:03:51.271Z,10.10
2023-05-02T20:06:38.009Z,10.10
2023-05-02T20:09:25.195Z,10.00
2023-05-02T20:12:11.686Z,10.00
2023-05-02T20:14:58.013Z,9.90
2023-05-02T20:17:45.881Z,9.80
2023-05-02T20:20:32.841Z,9.80
2023-05-02T20:23:19.455Z,9.70
2023-05-02T20:26:05.878Z,9.80
2023-05-02T20:28:52.306Z,9.70
2023-05-02T20:31:40.003Z,9.60
2023-05-02T20:34:27.909Z,9.60
2023-05-02T20:37:14.264Z,9.60
2023-05-02T20:40:02.136Z,9.50
2023-05-02T20:42:49.632Z,9.40
2023-05-02T20:45:36.115Z,9.40
2023-05-02T20:48:22.662Z,9.40
2023-05-02T20:51:10.550Z,9.40
2023-05-02T20:53:59.207Z,9.40
2023-05-02T20:56:46.033Z,9.30
2023-05-02T20:59:32.569Z,9.30
2023-05-02T21:02:18.884Z,9.30
2023-05-02T21:05:05.677Z,9.20
2023-05-02T21:07:53.493Z,9.20
2023-05-02T21:10:40.725Z,9.10
2023-05-02T21:13:27.153Z,9.10
2023-05-02T21:16:19.836Z,9.20
2023-05-02T21:19:06.640Z,9.10
2023-05-02T21:21:53.328Z,9.00
2023-05-02T21:24:41.487Z,9.00
2023-05-02T21:27:27.926Z,8.90
2023-05-02T21:30:14.938Z,8.90
2023-05-02T21:33:02.066Z,8.80
2023-05-02T21:35:48.885Z,8.80
2023-05-02T21:38:35.433Z,8.80
2023-05-02T21:41:23.558Z,8.80
2023-05-02T21:44:13.813Z,8.80
2023-05-02T21:47:00.550Z,8.70
2023-05-02T21:49:46.913Z,8.70
2023-05-02T21:52:33.323Z,8.60
2023-05-02T21:55:19.743Z,8.80
2023-05-02T21:58:08.373Z,8.80
2023-05-02T22:00:54.987Z,8.80
2023-05-02T22:03:41.608Z,8.90
2023-05-02T22:06:28.458Z,9.00
2023-05-02T22:09:15.136Z,8.90
2023-05-02T22:12:02.899Z,8.90
2023-05-02T22:14:50.956Z,8.80
2023-05-02T22:17:37.863Z,9.00
2023-05-02T22:20:25.141Z,8.90
2023-05-02T22:23:12.328Z,9.00
2023-05-02T22:26:00.759Z,9.00
2023-05-02T22:28:47.311Z,9.00
2023-05-02T22:31:35.373Z,9.00
2023-05-02T22:34:22.306Z,9.00
2023-05-02T22:37:09.694Z,8.90
2023-05-02T22:39:56.101Z,9.00
2023-05-02T22:42:42.401Z,8.90
2023-05-02T22:45:28.822Z,8.90
2023-05-02T22:48:16.867Z,8.80
2023-05-02T22:51:03.182Z,8.80
2023-05-02T22:53:50.165Z,8.80
2023-05-02T22:56:36.703Z,8.60
2023-05-02T22:59:22.911Z,8.50
2023-05-02T23:02:12.208Z,8.50
2023-05-02T23:05:00.233Z,8.50
2023-05-02T23:07:46.961Z,8.50
2023-05-02T23:10:33.333Z,8.50
2023-05-02T23:13:19.937Z,8.40
2023-05-02T23:16:07.251Z,8.40
2023-05-02T23:18:53.902Z,8.40
2023-05-02T23:21:42.098Z,8.40
2023-05-02T23:24:29.456Z,8.30
2023-05-02T23:27:16.599Z,8.30
2023-05-02T23:30:03.307Z,8.20
2023-05-02T23:32:50.067Z,8.20
2023-05-02T23:35:36.877Z,8.10
2023-05-02T23:38:24.588Z,8.10
2023-05-02T23:41:11.343Z,8.10
2023-05-02T23:43:58.033Z,8.10
2023-05-02T23:46:44.597Z,7.90
2023-05-02T23:49:31.430Z,7.90
2023-05-02T23:52:17.905Z,7.90
2023-05-02T23:55:10.373Z,7.90
2023-05-02T23:57:57.276Z,7.80
